sensor_id;sensor_type;location;lat;lon;timestamp;P1;durP1;ratioP1;P2;durP2;ratioP2
59876;SDS011;45749;51.140;17.184;2023-01-08T00:01:36;42.48;;;27.98;;
59876;SDS011;45749;51.140;17.184;2023-01-08T00:04:02;39.08;;;25.08;;
59876;SDS011;45749;51.140;17.184;2023-01-08T00:06:28;47.20;;;28.80;;
59876;SDS011;45749;51.140;17.184;2023-01-08T00:08:53;42.65;;;27.20;;
59876;SDS011;45749;51.140;17.184;2023-01-08T00:11:19;47.43;;;27.27;;
59876;SDS011;45749;51.140;17.184;2023-01-08T00:13:45;41.68;;;27.87;;
59876;SDS011;45749;51.140;17.184;2023-01-08T00:16:12;45.75;;;30.10;;
59876;SDS011;45749;51.140;17.184;2023-01-08T00:18:41;44.50;;;27.55;;
59876;SDS011;45749;51.140;17.184;2023-01-08T00:21:08;41.18;;;28.02;;
59876;SDS011;45749;51.140;17.184;2023-01-08T00:23:34;45.83;;;28.47;;
59876;SDS011;45749;51.140;17.184;2023-01-08T00:26:01;45.55;;;28.87;;
59876;SDS011;45749;51.140;17.184;2023-01-08T00:28:30;46.10;;;28.83;;
59876;SDS011;45749;51.140;17.184;2023-01-08T00:30:56;45.05;;;27.25;;
59876;SDS011;45749;51.140;17.184;2023-01-08T00:33:22;44.48;;;26.85;;
59876;SDS011;45749;51.140;17.184;2023-01-08T00:35:48;44.30;;;26.95;;
59876;SDS011;45749;51.140;17.184;2023-01-08T00:38:14;41.50;;;26.87;;
59876;SDS011;45749;51.140;17.184;2023-01-08T00:40:40;45.88;;;29.32;;
59876;SDS011;45749;51.140;17.184;2023-01-08T00:43:06;42.53;;;28.20;;
59876;SDS011;45749;51.140;17.184;2023-01-08T00:45:33;44.80;;;27.45;;
59876;SDS011;45749;51.140;17.184;2023-01-08T00:47:59;45.98;;;28.27;;
59876;SDS011;45749;51.140;17.184;2023-01-08T00:50:25;45.75;;;28.98;;
59876;SDS011;45749;51.140;17.184;2023-01-08T00:52:51;44.03;;;29.42;;
59876;SDS011;45749;51.140;17.184;2023-01-08T00:55:17;40.90;;;26.75;;
59876;SDS011;45749;51.140;17.184;2023-01-08T00:57:43;49.50;;;28.57;;
59876;SDS011;45749;51.140;17.184;2023-01-08T01:00:11;43.17;;;26.80;;
59876;SDS011;45749;51.140;17.184;2023-01-08T01:02:40;41.92;;;26.93;;
59876;SDS011;45749;51.140;17.184;2023-01-08T01:05:12;43.30;;;27.45;;
59876;SDS011;45749;51.140;17.184;2023-01-08T01:07:43;41.65;;;27.10;;
59876;SDS011;45749;51.140;17.184;2023-01-08T01:10:12;44.48;;;28.00;;
59876;SDS011;45749;51.140;17.184;2023-01-08T01:12:39;45.50;;;28.15;;
59876;SDS011;45749;51.140;17.184;2023-01-08T01:15:06;47.05;;;29.50;;
59876;SDS011;45749;51.140;17.184;2023-01-08T01:17:36;47.40;;;30.32;;
59876;SDS011;45749;51.140;17.184;2023-01-08T01:20:04;42.65;;;28.77;;
59876;SDS011;45749;51.140;17.184;2023-01-08T01:22:32;43.92;;;28.25;;
59876;SDS011;45749;51.140;17.184;2023-01-08T01:24:58;46.13;;;28.83;;
59876;SDS011;45749;51.140;17.184;2023-01-08T01:27:24;44.65;;;27.85;;
59876;SDS011;45749;51.140;17.184;2023-01-08T01:29:51;44.33;;;27.45;;
59876;SDS011;45749;51.140;17.184;2023-01-08T01:32:18;42.05;;;24.90;;
59876;SDS011;45749;51.140;17.184;2023-01-08T01:34:44;43.90;;;27.58;;
59876;SDS011;45749;51.140;17.184;2023-01-08T01:37:11;44.93;;;27.60;;
59876;SDS011;45749;51.140;17.184;2023-01-08T01:39:38;46.55;;;29.07;;
59876;SDS011;45749;51.140;17.184;2023-01-08T01:42:05;40.50;;;27.02;;
59876;SDS011;45749;51.140;17.184;2023-01-08T01:50:18;45.48;;;27.32;;
59876;SDS011;45749;51.140;17.184;2023-01-08T01:55:28;45.35;;;29.23;;
59876;SDS011;45749;51.140;17.184;2023-01-08T01:58:03;42.80;;;28.77;;
59876;SDS011;45749;51.140;17.184;2023-01-08T02:00:46;50.25;;;29.77;;
59876;SDS011;45749;51.140;17.184;2023-01-08T02:03:14;43.05;;;28.83;;
59876;SDS011;45749;51.140;17.184;2023-01-08T02:06:01;43.38;;;27.80;;
59876;SDS011;45749;51.140;17.184;2023-01-08T02:08:43;43.78;;;29.60;;
59876;SDS011;45749;51.140;17.184;2023-01-08T02:11:21;52.45;;;29.52;;
59876;SDS011;45749;51.140;17.184;2023-01-08T02:14:16;49.48;;;29.85;;
59876;SDS011;45749;51.140;17.184;2023-01-08T02:17:00;47.03;;;28.90;;
59876;SDS011;45749;51.140;17.184;2023-01-08T02:19:42;48.42;;;29.12;;
59876;SDS011;45749;51.140;17.184;2023-01-08T02:27:37;54.60;;;31.62;;
59876;SDS011;45749;51.140;17.184;2023-01-08T02:30:07;52.50;;;31.35;;
59876;SDS011;45749;51.140;17.184;2023-01-08T02:32:39;52.25;;;29.18;;
59876;SDS011;45749;51.140;17.184;2023-01-08T02:35:04;56.83;;;30.97;;
59876;SDS011;45749;51.140;17.184;2023-01-08T02:37:31;50.23;;;30.48;;
59876;SDS011;45749;51.140;17.184;2023-01-08T02:45:49;44.88;;;31.65;;
59876;SDS011;45749;51.140;17.184;2023-01-08T02:48:22;50.00;;;29.23;;
59876;SDS011;45749;51.140;17.184;2023-01-08T02:51:02;46.95;;;30.10;;
59876;SDS011;45749;51.140;17.184;2023-01-08T02:53:38;48.78;;;29.02;;
59876;SDS011;45749;51.140;17.184;2023-01-08T02:56:12;44.08;;;28.80;;
59876;SDS011;45749;51.140;17.184;2023-01-08T02:58:43;49.58;;;29.50;;
59876;SDS011;45749;51.140;17.184;2023-01-08T03:01:13;52.50;;;33.13;;
59876;SDS011;45749;51.140;17.184;2023-01-08T03:03:43;45.88;;;29.07;;
59876;SDS011;45749;51.140;17.184;2023-01-08T03:06:14;47.48;;;31.12;;
59876;SDS011;45749;51.140;17.184;2023-01-08T03:08:44;51.28;;;32.50;;
59876;SDS011;45749;51.140;17.184;2023-01-08T03:11:16;120.10;;;51.50;;
59876;SDS011;45749;51.140;17.184;2023-01-08T03:16:51;53.73;;;32.13;;
59876;SDS011;45749;51.140;17.184;2023-01-08T03:22:02;48.30;;;31.10;;
59876;SDS011;45749;51.140;17.184;2023-01-08T03:24:32;56.18;;;34.10;;
59876;SDS011;45749;51.140;17.184;2023-01-08T03:27:03;69.10;;;41.90;;
59876;SDS011;45749;51.140;17.184;2023-01-08T03:29:31;59.90;;;39.10;;
59876;SDS011;45749;51.140;17.184;2023-01-08T03:32:01;62.73;;;35.70;;
59876;SDS011;45749;51.140;17.184;2023-01-08T03:34:30;59.90;;;38.08;;
59876;SDS011;45749;51.140;17.184;2023-01-08T03:36:59;59.50;;;35.30;;
59876;SDS011;45749;51.140;17.184;2023-01-08T03:39:30;55.23;;;34.45;;
59876;SDS011;45749;51.140;17.184;2023-01-08T03:42:10;50.38;;;32.93;;
59876;SDS011;45749;51.140;17.184;2023-01-08T03:44:39;58.48;;;32.83;;
59876;SDS011;45749;51.140;17.184;2023-01-08T03:47:05;53.90;;;33.73;;
59876;SDS011;45749;51.140;17.184;2023-01-08T03:49:34;56.40;;;34.78;;
59876;SDS011;45749;51.140;17.184;2023-01-08T03:52:03;55.95;;;34.45;;
59876;SDS011;45749;51.140;17.184;2023-01-08T03:54:31;59.88;;;35.58;;
59876;SDS011;45749;51.140;17.184;2023-01-08T03:56:59;51.48;;;32.78;;
59876;SDS011;45749;51.140;17.184;2023-01-08T03:59:25;49.15;;;31.85;;
59876;SDS011;45749;51.140;17.184;2023-01-08T04:01:51;53.25;;;32.08;;
59876;SDS011;45749;51.140;17.184;2023-01-08T04:04:17;53.00;;;33.55;;
59876;SDS011;45749;51.140;17.184;2023-01-08T04:06:44;53.40;;;33.00;;
59876;SDS011;45749;51.140;17.184;2023-01-08T04:09:09;49.05;;;32.23;;
59876;SDS011;45749;51.140;17.184;2023-01-08T04:11:35;51.68;;;32.10;;
59876;SDS011;45749;51.140;17.184;2023-01-08T04:14:01;51.45;;;31.25;;
59876;SDS011;45749;51.140;17.184;2023-01-08T04:16:27;46.65;;;30.97;;
59876;SDS011;45749;51.140;17.184;2023-01-08T04:18:53;50.17;;;29.85;;
59876;SDS011;45749;51.140;17.184;2023-01-08T04:21:19;55.15;;;33.48;;
59876;SDS011;45749;51.140;17.184;2023-01-08T04:23:45;49.38;;;30.20;;
59876;SDS011;45749;51.140;17.184;2023-01-08T04:26:11;42.67;;;30.57;;
59876;SDS011;45749;51.140;17.184;2023-01-08T04:28:37;49.25;;;30.20;;
59876;SDS011;45749;51.140;17.184;2023-01-08T04:31:04;51.10;;;33.55;;
59876;SDS011;45749;51.140;17.184;2023-01-08T04:33:33;50.85;;;32.65;;
59876;SDS011;45749;51.140;17.184;2023-01-08T04:35:59;50.98;;;31.60;;
59876;SDS011;45749;51.140;17.184;2023-01-08T04:38:25;50.50;;;35.65;;
59876;SDS011;45749;51.140;17.184;2023-01-08T04:40:57;54.93;;;35.58;;
59876;SDS011;45749;51.140;17.184;2023-01-08T04:43:25;51.13;;;35.13;;
59876;SDS011;45749;51.140;17.184;2023-01-08T04:45:52;59.20;;;34.67;;
59876;SDS011;45749;51.140;17.184;2023-01-08T04:48:23;49.85;;;32.25;;
59876;SDS011;45749;51.140;17.184;2023-01-08T04:50:49;48.60;;;30.88;;
59876;SDS011;45749;51.140;17.184;2023-01-08T04:53:15;44.90;;;30.72;;
59876;SDS011;45749;51.140;17.184;2023-01-08T04:55:41;44.70;;;29.10;;
59876;SDS011;45749;51.140;17.184;2023-01-08T04:58:07;45.83;;;30.65;;
59876;SDS011;45749;51.140;17.184;2023-01-08T05:00:33;53.02;;;33.48;;
59876;SDS011;45749;51.140;17.184;2023-01-08T05:03:00;49.95;;;31.93;;
59876;SDS011;45749;51.140;17.184;2023-01-08T05:05:26;46.00;;;30.75;;
59876;SDS011;45749;51.140;17.184;2023-01-08T05:07:52;51.28;;;31.27;;
59876;SDS011;45749;51.140;17.184;2023-01-08T05:10:18;52.40;;;33.95;;
59876;SDS011;45749;51.140;17.184;2023-01-08T05:12:44;45.78;;;30.27;;
59876;SDS011;45749;51.140;17.184;2023-01-08T05:15:10;44.95;;;29.60;;
59876;SDS011;45749;51.140;17.184;2023-01-08T05:17:36;43.05;;;28.83;;
59876;SDS011;45749;51.140;17.184;2023-01-08T05:20:02;43.13;;;29.02;;
59876;SDS011;45749;51.140;17.184;2023-01-08T05:22:28;49.63;;;31.80;;
59876;SDS011;45749;51.140;17.184;2023-01-08T05:24:54;41.13;;;27.37;;
59876;SDS011;45749;51.140;17.184;2023-01-08T05:27:19;42.17;;;27.32;;
59876;SDS011;45749;51.140;17.184;2023-01-08T05:29:45;46.37;;;28.47;;
59876;SDS011;45749;51.140;17.184;2023-01-08T05:32:15;41.13;;;28.60;;
59876;SDS011;45749;51.140;17.184;2023-01-08T05:34:43;39.13;;;25.92;;
59876;SDS011;45749;51.140;17.184;2023-01-08T05:37:09;44.95;;;28.50;;
59876;SDS011;45749;51.140;17.184;2023-01-08T05:39:36;38.48;;;27.13;;
59876;SDS011;45749;51.140;17.184;2023-01-08T05:42:02;40.03;;;26.55;;
59876;SDS011;45749;51.140;17.184;2023-01-08T05:44:29;37.40;;;25.15;;
59876;SDS011;45749;51.140;17.184;2023-01-08T05:46:55;42.70;;;27.65;;
59876;SDS011;45749;51.140;17.184;2023-01-08T05:49:22;37.45;;;26.17;;
59876;SDS011;45749;51.140;17.184;2023-01-08T05:51:48;38.95;;;26.90;;
59876;SDS011;45749;51.140;17.184;2023-01-08T05:54:15;43.35;;;26.80;;
59876;SDS011;45749;51.140;17.184;2023-01-08T05:56:41;42.10;;;27.70;;
59876;SDS011;45749;51.140;17.184;2023-01-08T05:59:11;47.73;;;27.87;;
59876;SDS011;45749;51.140;17.184;2023-01-08T06:01:37;39.30;;;25.27;;
59876;SDS011;45749;51.140;17.184;2023-01-08T06:04:03;41.00;;;28.10;;
59876;SDS011;45749;51.140;17.184;2023-01-08T06:06:29;37.17;;;24.23;;
59876;SDS011;45749;51.140;17.184;2023-01-08T06:08:55;41.88;;;27.82;;
59876;SDS011;45749;51.140;17.184;2023-01-08T06:11:21;37.78;;;24.45;;
59876;SDS011;45749;51.140;17.184;2023-01-08T06:13:47;36.10;;;24.25;;
59876;SDS011;45749;51.140;17.184;2023-01-08T06:16:13;42.78;;;26.85;;
59876;SDS011;45749;51.140;17.184;2023-01-08T06:18:41;42.78;;;26.10;;
59876;SDS011;45749;51.140;17.184;2023-01-08T06:21:07;40.35;;;24.82;;
59876;SDS011;45749;51.140;17.184;2023-01-08T06:23:34;41.20;;;26.05;;
59876;SDS011;45749;51.140;17.184;2023-01-08T06:26:00;44.27;;;26.20;;
59876;SDS011;45749;51.140;17.184;2023-01-08T06:28:28;43.70;;;26.25;;
59876;SDS011;45749;51.140;17.184;2023-01-08T06:30:58;35.95;;;25.12;;
59876;SDS011;45749;51.140;17.184;2023-01-08T06:33:25;38.33;;;26.00;;
59876;SDS011;45749;51.140;17.184;2023-01-08T06:35:51;41.70;;;25.35;;
59876;SDS011;45749;51.140;17.184;2023-01-08T06:38:17;38.02;;;25.68;;
59876;SDS011;45749;51.140;17.184;2023-01-08T06:40:44;38.35;;;26.07;;
59876;SDS011;45749;51.140;17.184;2023-01-08T06:43:11;38.15;;;25.30;;
59876;SDS011;45749;51.140;17.184;2023-01-08T06:45:37;37.25;;;24.20;;
59876;SDS011;45749;51.140;17.184;2023-01-08T06:48:04;38.95;;;23.92;;
59876;SDS011;45749;51.140;17.184;2023-01-08T06:50:32;36.63;;;23.77;;
59876;SDS011;45749;51.140;17.184;2023-01-08T06:52:59;36.88;;;23.98;;
59876;SDS011;45749;51.140;17.184;2023-01-08T06:55:25;38.10;;;23.57;;
59876;SDS011;45749;51.140;17.184;2023-01-08T06:57:55;33.90;;;23.32;;
59876;SDS011;45749;51.140;17.184;2023-01-08T07:00:23;36.55;;;23.92;;
59876;SDS011;45749;51.140;17.184;2023-01-08T07:02:56;34.05;;;22.62;;
59876;SDS011;45749;51.140;17.184;2023-01-08T07:05:19;31.95;;;21.02;;
59876;SDS011;45749;51.140;17.184;2023-01-08T07:07:46;35.17;;;21.75;;
59876;SDS011;45749;51.140;17.184;2023-01-08T07:10:12;32.03;;;21.97;;
59876;SDS011;45749;51.140;17.184;2023-01-08T07:12:39;31.77;;;20.92;;
59876;SDS011;45749;51.140;17.184;2023-01-08T07:15:05;33.70;;;21.77;;
59876;SDS011;45749;51.140;17.184;2023-01-08T07:17:32;33.67;;;23.45;;
59876;SDS011;45749;51.140;17.184;2023-01-08T07:19:58;36.73;;;25.08;;
59876;SDS011;45749;51.140;17.184;2023-01-08T07:22:24;35.25;;;23.83;;
59876;SDS011;45749;51.140;17.184;2023-01-08T07:24:53;44.38;;;29.60;;
59876;SDS011;45749;51.140;17.184;2023-01-08T07:27:19;44.18;;;29.57;;
59876;SDS011;45749;51.140;17.184;2023-01-08T07:29:45;55.20;;;37.03;;
59876;SDS011;45749;51.140;17.184;2023-01-08T07:32:11;94.17;;;55.78;;
59876;SDS011;45749;51.140;17.184;2023-01-08T07:34:37;102.47;;;58.98;;
59876;SDS011;45749;51.140;17.184;2023-01-08T07:37:03;102.32;;;61.02;;
59876;SDS011;45749;51.140;17.184;2023-01-08T07:39:29;89.92;;;54.48;;
59876;SDS011;45749;51.140;17.184;2023-01-08T07:41:55;101.30;;;59.88;;
59876;SDS011;45749;51.140;17.184;2023-01-08T07:44:22;91.10;;;51.48;;
59876;SDS011;45749;51.140;17.184;2023-01-08T07:46:47;52.95;;;32.03;;
59876;SDS011;45749;51.140;17.184;2023-01-08T07:49:13;40.00;;;24.75;;
59876;SDS011;45749;51.140;17.184;2023-01-08T07:51:39;35.83;;;23.70;;
59876;SDS011;45749;51.140;17.184;2023-01-08T07:54:05;39.05;;;25.60;;
59876;SDS011;45749;51.140;17.184;2023-01-08T07:56:31;44.65;;;30.45;;
59876;SDS011;45749;51.140;17.184;2023-01-08T07:58:58;40.55;;;27.58;;
59876;SDS011;45749;51.140;17.184;2023-01-08T08:01:24;37.13;;;25.30;;
59876;SDS011;45749;51.140;17.184;2023-01-08T08:03:50;36.60;;;23.50;;
59876;SDS011;45749;51.140;17.184;2023-01-08T08:06:17;32.90;;;21.15;;
59876;SDS011;45749;51.140;17.184;2023-01-08T08:08:43;29.10;;;20.05;;
59876;SDS011;45749;51.140;17.184;2023-01-08T08:11:09;33.53;;;22.02;;
59876;SDS011;45749;51.140;17.184;2023-01-08T08:13:35;33.63;;;22.30;;
59876;SDS011;45749;51.140;17.184;2023-01-08T08:16:04;30.90;;;22.93;;
59876;SDS011;45749;51.140;17.184;2023-01-08T08:18:30;30.48;;;21.97;;
59876;SDS011;45749;51.140;17.184;2023-01-08T08:20:56;37.42;;;21.85;;
59876;SDS011;45749;51.140;17.184;2023-01-08T08:23:22;38.48;;;25.40;;
59876;SDS011;45749;51.140;17.184;2023-01-08T08:25:49;32.73;;;23.20;;
59876;SDS011;45749;51.140;17.184;2023-01-08T08:28:16;38.42;;;24.40;;
59876;SDS011;45749;51.140;17.184;2023-01-08T08:30:42;32.63;;;22.58;;
59876;SDS011;45749;51.140;17.184;2023-01-08T08:33:08;35.03;;;22.67;;
59876;SDS011;45749;51.140;17.184;2023-01-08T08:35:35;31.87;;;21.05;;
59876;SDS011;45749;51.140;17.184;2023-01-08T08:38:02;35.23;;;22.73;;
59876;SDS011;45749;51.140;17.184;2023-01-08T08:40:28;35.50;;;24.27;;
59876;SDS011;45749;51.140;17.184;2023-01-08T08:42:59;30.68;;;21.05;;
59876;SDS011;45749;51.140;17.184;2023-01-08T08:45:24;34.38;;;22.98;;
59876;SDS011;45749;51.140;17.184;2023-01-08T08:47:50;33.63;;;22.73;;
59876;SDS011;45749;51.140;17.184;2023-01-08T08:50:16;36.00;;;23.87;;
59876;SDS011;45749;51.140;17.184;2023-01-08T08:52:43;36.70;;;25.02;;
59876;SDS011;45749;51.140;17.184;2023-01-08T08:55:10;38.73;;;25.32;;
59876;SDS011;45749;51.140;17.184;2023-01-08T08:57:43;54.95;;;31.73;;
59876;SDS011;45749;51.140;17.184;2023-01-08T09:00:11;71.15;;;42.23;;
59876;SDS011;45749;51.140;17.184;2023-01-08T09:02:38;67.30;;;42.48;;
59876;SDS011;45749;51.140;17.184;2023-01-08T09:05:05;60.85;;;37.58;;
59876;SDS011;45749;51.140;17.184;2023-01-08T09:07:31;53.85;;;31.37;;
59876;SDS011;45749;51.140;17.184;2023-01-08T09:09:57;50.65;;;30.32;;
59876;SDS011;45749;51.140;17.184;2023-01-08T09:12:23;42.15;;;26.90;;
59876;SDS011;45749;51.140;17.184;2023-01-08T09:14:49;45.28;;;26.93;;
59876;SDS011;45749;51.140;17.184;2023-01-08T09:17:15;42.13;;;26.85;;
59876;SDS011;45749;51.140;17.184;2023-01-08T09:19:42;34.10;;;24.12;;
59876;SDS011;45749;51.140;17.184;2023-01-08T09:22:08;40.67;;;26.75;;
59876;SDS011;45749;51.140;17.184;2023-01-08T09:24:34;38.85;;;25.08;;
59876;SDS011;45749;51.140;17.184;2023-01-08T09:27:00;42.10;;;25.57;;
59876;SDS011;45749;51.140;17.184;2023-01-08T09:29:26;44.38;;;27.10;;
59876;SDS011;45749;51.140;17.184;2023-01-08T09:31:52;37.95;;;24.80;;
59876;SDS011;45749;51.140;17.184;2023-01-08T09:34:17;54.65;;;35.38;;
59876;SDS011;45749;51.140;17.184;2023-01-08T09:36:43;42.70;;;27.15;;
59876;SDS011;45749;51.140;17.184;2023-01-08T09:39:09;44.77;;;28.05;;
59876;SDS011;45749;51.140;17.184;2023-01-08T09:41:37;46.70;;;29.00;;
59876;SDS011;45749;51.140;17.184;2023-01-08T09:44:09;48.40;;;30.20;;
59876;SDS011;45749;51.140;17.184;2023-01-08T09:46:40;43.13;;;25.75;;
59876;SDS011;45749;51.140;17.184;2023-01-08T09:49:09;44.15;;;26.70;;
59876;SDS011;45749;51.140;17.184;2023-01-08T09:51:37;47.95;;;28.32;;
59876;SDS011;45749;51.140;17.184;2023-01-08T09:54:04;67.80;;;32.75;;
59876;SDS011;45749;51.140;17.184;2023-01-08T09:56:34;51.13;;;29.72;;
59876;SDS011;45749;51.140;17.184;2023-01-08T09:59:01;43.05;;;26.42;;
59876;SDS011;45749;51.140;17.184;2023-01-08T10:01:29;42.30;;;26.52;;
59876;SDS011;45749;51.140;17.184;2023-01-08T10:04:18;43.23;;;25.50;;
59876;SDS011;45749;51.140;17.184;2023-01-08T10:06:51;42.13;;;25.15;;
59876;SDS011;45749;51.140;17.184;2023-01-08T10:09:41;37.45;;;22.82;;
59876;SDS011;45749;51.140;17.184;2023-01-08T10:12:08;34.48;;;21.25;;
59876;SDS011;45749;51.140;17.184;2023-01-08T10:14:36;36.13;;;21.87;;
